Time;durP1;ratioP1;P1;durP2;ratioP2;P2;SDS_P1;SDS_P2;PMS_P1;PMS_P2;Temp;Humidity;BMP_temperature;BMP_pressure;BME280_temperature;BME280_humidity;BME280_pressure;Samples;Min_cycle;Max_cycle;Signal;HPM_P1;HPM_P2
2021/03/19 00:01:38;;;;;;;;;;;2.20;99.90;;;;;;5055199;28;19904;-68
2021/03/19 00:04:04;;;;;;;;;;;1.80;99.90;;;;;;5054219;28;19904;-67
2021/03/19 00:06:31;;;;;;;;;;;;;;;;;;5054218;28;19904;-68
2021/03/19 00:08:56;;;;;;;;;;;2.40;99.90;;;;;;5055316;28;20015;-68
2021/03/19 00:11:22;;;;;;;;;;;2.40;99.90;;;;;;5060383;28;20370;-68
2021/03/19 00:13:48;;;;;;;;;;;2.40;99.90;;;;;;5074761;28;20243;-69
2021/03/19 00:16:13;;;;;;;;;;;3.20;99.90;;;;;;5074544;28;19995;-69
2021/03/19 00:18:40;;;;;;;;;;;2.40;99.90;;;;;;5074476;28;20625;-70
2021/03/19 00:21:06;;;;;;;;;;;2.40;99.90;;;;;;5074559;28;19913;-68
2021/03/19 00:23:32;;;;;;;;;;;2.40;99.90;;;;;;5074585;28;19919;-69
2021/03/19 00:25:57;;;;;;;;;;;2.40;99.90;;;;;;5074289;28;19909;-69
2021/03/19 00:28:23;;;;;;;;;;;;;;;;;;5060138;28;20247;-72
2021/03/19 00:30:49;;;;;;;;;;;;;;;;;;5074345;28;20305;-71
2021/03/19 00:33:15;;;;;;;;;;;;;;;;;;5059982;28;20247;-71
2021/03/19 00:35:41;;;;;;;;;;;;;;;;;;5073903;28;19911;-69
2021/03/19 00:38:08;;;;;;;;;;;;;;;;;;5074015;28;19919;-72
2021/03/19 00:40:33;;;;;;;;;;;;;;;;;;5065873;28;19911;-72
2021/03/19 00:42:59;;;;;;;;;;;2.30;99.90;;;;;;5067788;28;19908;-69
2021/03/19 00:45:26;;;;;;;;;;;2.00;99.90;;;;;;5073953;28;20027;-68
2021/03/19 00:47:52;;;;;;;;;;;1.20;99.90;;;;;;5074398;28;20350;-66
2021/03/19 00:50:28;;;;;;;;;;;2.10;99.90;;;;;;5073989;28;20004;-69
2021/03/19 00:52:54;;;;;;;;;;;1.20;99.90;;;;;;5052553;28;19912;-67
2021/03/19 00:55:22;;;;;;;;;;;;;;;;;;5053379;28;19982;-66
2021/03/19 00:57:49;;;;;;;;;;;;;;;;;;5052122;28;19921;-67
2021/03/19 01:00:15;;;;;;;;;;;;;;;;;;5052765;28;19911;-66
2021/03/19 01:02:42;;;;;;;;;;;;;;;;;;5054532;28;19905;-68
2021/03/19 01:05:10;;;;;;;;;;;;;;;;;;5053299;28;19950;-66
2021/03/19 01:07:38;;;;;;;;;;;;;;;;;;5054013;28;19930;-66
2021/03/19 01:10:05;;;;;;;;;;;2.10;99.90;;;;;;5054412;28;19958;-67
2021/03/19 01:12:31;;;;;;;;;;;2.00;99.90;;;;;;5058452;28;19909;-67
2021/03/19 01:14:59;;;;;;;;;;;;;;;;;;5051575;28;20532;-67
2021/03/19 01:17:25;;;;;;;;;;;;;;;;;;5053268;28;19943;-67
2021/03/19 01:19:53;;;;;;;;;;;;;;;;;;5051280;28;19923;-67
2021/03/19 01:22:22;;;;;;;;;;;;;;;;;;5051143;28;19905;-67
2021/03/19 01:24:48;;;;;;;;;;;;;;;;;;5051154;28;19939;-68
2021/03/19 01:27:14;;;;;;;;;;;;;;;;;;5051382;28;19905;-70
2021/03/19 01:29:40;;;;;;;;;;;;;;;;;;5052348;28;19911;-68
2021/03/19 01:32:06;;;;;;;;;;;;;;;;;;5062044;28;20388;-68
2021/03/19 01:34:32;;;;;;;;;;;;;;;;;;5051990;28;19991;-67
2021/03/19 01:36:59;;;;;;;;;;;;;;;;;;5056127;28;19955;-74
2021/03/19 01:39:27;;;;;;;;;;;;;;;;;;5054249;28;19913;-71
2021/03/19 01:41:55;;;;;;;;;;;;;;;;;;5052156;28;19912;-66
2021/03/19 01:44:23;;;;;;;;;;;;;;;;;;5053029;28;19967;-67
2021/03/19 01:47:07;;;;;;;;;;;2.40;99.90;;;;;;5035173;28;19905;-67
2021/03/19 01:49:33;;;;;;;;;;;;;;;;;;5052622;28;19917;-68
2021/03/19 01:51:59;;;;;;;;;;;;;;;;;;5053180;28;19911;-69
2021/03/19 01:54:43;;;;;;;;;;;2.80;99.90;;;;;;5052861;28;19992;-68
2021/03/19 01:57:09;;;;;;;;;;;;;;;;;;5052406;28;19905;-67
2021/03/19 01:59:53;;;;;;;;;;;2.80;99.90;;;;;;5053122;28;19913;-67
2021/03/19 02:02:19;;;;;;;;;;;;;;;;;;5052903;28;19905;-67
2021/03/19 02:04:45;;;;;;;;;;;;;;;;;;5052226;28;19939;-69
2021/03/19 02:07:29;;;;;;;;;;;2.90;99.90;;;;;;5053121;28;20303;-69
2021/03/19 02:09:58;;;;;;;;;;;;;;;;;;5052707;28;19940;-70
2021/03/19 02:12:24;;;;;;;;;;;;;;;;;;5053197;28;20011;-70
2021/03/19 02:14:50;;;;;;;;;;;;;;;;;;5051593;28;19999;-68
2021/03/19 02:17:15;;;;;;;;;;;;;;;;;;5043676;28;20422;-66
2021/03/19 02:19:41;;;;;;;;;;;;;;;;;;5049226;28;19935;-66
2021/03/19 02:22:07;;;;;;;;;;;;;;;;;;5062839;28;19915;-66
2021/03/19 02:24:33;;;;;;;;;;;;;;;;;;5072477;28;19962;-69
2021/03/19 02:26:59;;;;;;;;;;;;;;;;;;5051007;28;19916;-69
2021/03/19 02:29:25;;;;;;;;;;;;;;;;;;5067298;28;19955;-67
2021/03/19 02:31:51;;;;;;;;;;;;;;;;;;5072349;28;19908;-67
2021/03/19 02:34:17;;;;;;;;;;;3.10;99.90;;;;;;5072307;28;19904;-68
2021/03/19 02:36:43;;;;;;;;;;;;;;;;;;5072631;28;19920;-68
2021/03/19 02:39:09;;;;;;;;;;;3.10;99.90;;;;;;5073174;28;19955;-68
2021/03/19 02:41:34;;;;;;;;;;;3.10;99.90;;;;;;5075971;28;19940;-67
2021/03/19 02:44:00;;;;;;;;;;;2.80;99.90;;;;;;5076582;28;19962;-67
2021/03/19 02:46:25;;;;;;;;;;;3.10;99.90;;;;;;5075751;28;19905;-70
2021/03/19 02:48:51;;;;;;;;;;;;;;;;;;5076924;28;19905;-66
2021/03/19 02:51:17;;;;;;;;;;;;;;;;;;5077273;28;19911;-66
2021/03/19 02:53:43;;;;;;;;;;;3.20;99.90;;;;;;5076706;28;20380;-67
2021/03/19 02:56:09;;;;;;;;;;;3.30;99.90;;;;;;5076887;28;20310;-67
2021/03/19 02:58:34;;;;;;;;;;;3.20;99.90;;;;;;5076625;28;19919;-67
2021/03/19 03:01:01;;;;;;;;;;;3.20;99.90;;;;;;5076742;28;19905;-66
2021/03/19 03:03:29;;;;;;;;;;;;;;;;;;5076833;28;19954;-66
2021/03/19 03:05:55;;;;;;;;;;;3.30;99.90;;;;;;5076374;28;19911;-67
2021/03/19 03:08:21;;;;;;;;;;;3.30;99.90;;;;;;5076907;28;19904;-67
2021/03/19 03:10:47;;;;;;;;;;;3.30;99.90;;;;;;5062297;28;20358;-66
2021/03/19 03:13:13;;;;;;;;;;;3.30;99.90;;;;;;5076182;28;19962;-67
2021/03/19 03:15:40;;;;;;;;;;;;;;;;;;5076711;28;20313;-67
2021/03/19 03:18:06;;;;;;;;;;;3.40;99.90;;;;;;5076604;28;19905;-66
2021/03/19 03:20:33;;;;;;;;;;;3.50;99.90;;;;;;5076135;28;19915;-66
2021/03/19 03:22:59;;;;;;;;;;;3.40;99.90;;;;;;5076581;28;19912;-66
2021/03/19 03:25:25;;;;;;;;;;;3.40;99.90;;;;;;5076551;28;20265;-67
2021/03/19 03:27:51;;;;;;;;;;;3.40;99.90;;;;;;5076164;28;19904;-67
2021/03/19 03:30:37;;;;;;;;;;;3.40;99.90;;;;;;5076477;28;19911;-67
2021/03/19 03:33:04;;;;;;;;;;;3.50;99.90;;;;;;5058426;28;20071;-66
2021/03/19 03:35:30;;;;;;;;;;;3.50;99.90;;;;;;5075876;28;20265;-66
2021/03/19 03:37:55;;;;;;;;;;;3.60;99.90;;;;;;5075872;28;19915;-66
2021/03/19 03:40:23;;;;;;;;;;;3.60;99.90;;;;;;5075972;28;19904;-67
2021/03/19 03:42:49;;;;;;;;;;;3.60;99.90;;;;;;5075977;28;19995;-67
2021/03/19 03:45:15;;;;;;;;;;;3.90;99.90;;;;;;5076166;28;20380;-67
2021/03/19 03:47:41;;;;;;;;;;;4.30;99.90;;;;;;5075836;28;19944;-67
2021/03/19 03:50:08;;;;;;;;;;;3.70;99.90;;;;;;5075545;28;19999;-67
2021/03/19 03:52:33;;;;;;;;;;;3.70;99.90;;;;;;5075742;28;19915;-66
2021/03/19 03:54:59;;;;;;;;;;;3.70;99.90;;;;;;5075649;28;19908;-67
2021/03/19 03:57:24;;;;;;;;;;;3.60;99.90;;;;;;5076030;28;20416;-67
2021/03/19 03:59:50;;;;;;;;;;;3.50;99.90;;;;;;5075654;28;19923;-67
2021/03/19 04:02:20;;;;;;;;;;;3.50;99.90;;;;;;5075511;28;19996;-67
2021/03/19 04:04:46;;;;;;;;;;;3.60;99.90;;;;;;5075809;28;19904;-67
2021/03/19 04:07:12;;;;;;;;;;;3.50;99.90;;;;;;5075719;28;19905;-67
2021/03/19 04:09:38;;;;;;;;;;;3.50;99.90;;;;;;5069565;28;19958;-67
2021/03/19 04:12:04;;;;;;;;;;;3.40;99.90;;;;;;5066995;28;19913;-67
2021/03/19 04:14:29;;;;;;;;;;;3.50;99.90;;;;;;5054058;28;19915;-67
2021/03/19 04:16:55;;;;;;;;;;;3.60;99.90;;;;;;5064322;28;19927;-67
2021/03/19 04:19:21;;;;;;;;;;;3.60;99.90;;;;;;5075296;28;19967;-66
2021/03/19 04:21:46;;;;;;;;;;;3.60;99.90;;;;;;5075254;28;19948;-66
2021/03/19 04:24:12;;;;;;;;;;;3.50;99.90;;;;;;5074942;28;19905;-69
2021/03/19 04:26:38;;;;;;;;;;;3.60;99.90;;;;;;5075012;28;20333;-68
2021/03/19 04:29:04;;;;;;;;;;;3.50;99.90;;;;;;5075142;28;19908;-67
2021/03/19 04:31:29;;;;;;;;;;;3.50;99.90;;;;;;5074853;28;20346;-68
2021/03/19 04:33:55;;;;;;;;;;;3.40;99.90;;;;;;5075094;28;19905;-68
2021/03/19 04:36:32;;;;;;;;;;;3.40;99.90;;;;;;5075025;28;19904;-68
2021/03/19 04:38:59;;;;;;;;;;;3.40;99.90;;;;;;5075018;28;19999;-69
2021/03/19 04:41:25;;;;;;;;;;;3.40;99.90;;;;;;5075069;28;19904;-67
2021/03/19 04:43:51;;;;;;;;;;;3.40;99.90;;;;;;5074831;28;19911;-68
2021/03/19 04:46:16;;;;;;;;;;;3.40;99.90;;;;;;5053545;28;19905;-67
2021/03/19 04:48:42;;;;;;;;;;;3.40;99.90;;;;;;5073760;28;20277;-68
2021/03/19 04:51:07;;;;;;;;;;;3.40;99.90;;;;;;5074692;28;19904;-67
2021/03/19 04:53:33;;;;;;;;;;;3.50;99.90;;;;;;5074520;28;19908;-68
2021/03/19 04:55:58;;;;;;;;;;;3.50;99.90;;;;;;5074854;28;20262;-67
2021/03/19 04:58:24;;;;;;;;;;;3.40;99.90;;;;;;5074334;28;20018;-67
2021/03/19 05:00:50;;;;;;;;;;;3.40;99.90;;;;;;5074495;28;19904;-69
2021/03/19 05:03:15;;;;;;;;;;;3.30;99.90;;;;;;5073919;28;19908;-68
2021/03/19 05:05:41;;;;;;;;;;;3.50;99.90;;;;;;5074267;28;19905;-68
2021/03/19 05:08:06;;;;;;;;;;;3.50;99.90;;;;;;5074648;28;20266;-67
2021/03/19 05:10:35;;;;;;;;;;;3.70;99.90;;;;;;5061454;28;19904;-68
2021/03/19 05:13:01;;;;;;;;;;;3.10;99.90;;;;;;5073773;28;19912;-68
2021/03/19 05:15:28;;;;;;;;;;;3.50;99.90;;;;;;5073933;28;19908;-67
2021/03/19 05:17:53;;;;;;;;;;;3.50;99.90;;;;;;5074026;28;19915;-67
2021/03/19 05:20:19;;;;;;;;;;;3.50;99.90;;;;;;5052908;28;19905;-68
2021/03/19 05:22:45;;;;;;;;;;;3.40;99.90;;;;;;5051810;28;20407;-67
2021/03/19 05:25:12;;;;;;;;;;;3.70;99.90;;;;;;5073901;28;19987;-66
2021/03/19 05:27:38;;;;;;;;;;;3.60;99.90;;;;;;5052607;28;20347;-67
2021/03/19 05:30:05;;;;;;;;;;;3.60;99.90;;;;;;5052566;28;19928;-66
2021/03/19 05:32:31;;;;;;;;;;;3.50;99.90;;;;;;5052507;28;20274;-66
2021/03/19 05:34:57;;;;;;;;;;;3.60;99.90;;;;;;5071962;28;19904;-67
2021/03/19 05:37:22;;;;;;;;;;;3.50;99.90;;;;;;5056093;28;19996;-67
2021/03/19 05:39:48;;;;;;;;;;;3.60;99.90;;;;;;5073649;28;20293;-68
2021/03/19 05:42:13;;;;;;;;;;;3.60;99.90;;;;;;5073753;28;20314;-68
2021/03/19 05:44:42;;;;;;;;;;;3.60;99.90;;;;;;5073769;28;19987;-68
2021/03/19 05:47:08;;;;;;;;;;;3.60;99.90;;;;;;5073348;28;19904;-66
2021/03/19 05:49:33;;;;;;;;;;;3.50;99.90;;;;;;5073970;28;20053;-67
2021/03/19 05:52:00;;;;;;;;;;;3.60;99.90;;;;;;5073428;28;20003;-67
2021/03/19 05:54:26;;;;;;;;;;;3.40;99.90;;;;;;5073212;28;19912;-67
2021/03/19 05:57:14;;;;;;;;;;;3.60;99.90;;;;;;5073386;28;19904;-65
2021/03/19 05:59:47;;;;;;;;;;;3.50;99.90;;;;;;5059126;28;19912;-67
2021/03/19 06:02:16;;;;;;;;;;;3.40;99.90;;;;;;5072939;28;19944;-67
2021/03/19 06:04:41;;;;;;;;;;;3.50;99.90;;;;;;5073685;28;19911;-67
2021/03/19 06:07:07;;;;;;;;;;;3.50;99.90;;;;;;5073840;28;19912;-67
2021/03/19 06:09:35;;;;;;;;;;;3.50;99.90;;;;;;5068328;28;19944;-66
2021/03/19 06:12:04;;;;;;;;;;;3.30;99.90;;;;;;5043407;28;19904;-67
2021/03/19 06:14:32;;;;;;;;;;;3.50;99.90;;;;;;5070343;28;19990;-67
2021/03/19 06:17:00;;;;;;;;;;;3.60;99.90;;;;;;5073509;28;19917;-67
2021/03/19 06:19:34;;;;;;;;;;;3.60;99.90;;;;;;5073398;28;20266;-67
2021/03/19 06:22:15;;;;;;;;;;;3.50;99.90;;;;;;5052232;28;20290;-67
2021/03/19 06:24:41;;;;;;;;;;;3.60;99.90;;;;;;5070562;28;19905;-66
2021/03/19 06:27:19;;;;;;;;;;;3.70;99.90;;;;;;5073519;28;20373;-66
2021/03/19 06:29:46;;;;;;;;;;;3.50;99.90;;;;;;5073066;28;19927;-67
2021/03/19 06:32:21;;;;;;;;;;;3.70;99.90;;;;;;5073125;28;20427;-67
2021/03/19 06:34:55;;;;;;;;;;;3.70;99.90;;;;;;5073207;28;20359;-67
2021/03/19 06:37:34;;;;;;;;;;;3.70;99.90;;;;;;5073047;28;19904;-68
2021/03/19 06:40:03;;;;;;;;;;;3.70;99.90;;;;;;5062216;28;19932;-67
2021/03/19 06:42:31;;;;;;;;;;;3.80;99.90;;;;;;5060980;28;19950;-68
2021/03/19 06:45:02;;;;;;;;;;;3.70;99.90;;;;;;5063216;28;20003;-66
2021/03/19 06:47:42;;;;;;;;;;;3.70;99.90;;;;;;5052977;28;19955;-68
2021/03/19 06:50:12;;;;;;;;;;;3.60;99.90;;;;;;5057620;28;19905;-68
2021/03/19 06:52:40;;;;;;;;;;;;;;;;;;5065645;28;19915;-66
2021/03/19 06:55:07;;;;;;;;;;;;;;;;;;5040020;28;19905;-68
2021/03/19 06:57:46;;;;;;;;;;;4.40;99.90;;;;;;5062922;28;19904;-67
2021/03/19 07:00:12;;;;;;;;;;;3.90;99.90;;;;;;5056954;28;19912;-68
2021/03/19 07:02:53;;;;;;;;;;;4.00;99.90;;;;;;5053155;28;19915;-68
2021/03/19 07:05:34;;;;;;;;;;;4.10;99.90;;;;;;5052368;28;19908;-70
2021/03/19 07:08:15;;;;;;;;;;;4.10;99.90;;;;;;5052874;28;19905;-70
2021/03/19 07:10:42;;;;;;;;;;;;;;;;;;5055407;28;19981;-69
2021/03/19 07:13:07;;;;;;;;;;;4.20;99.90;;;;;;5037764;28;20282;-68
2021/03/19 07:15:51;;;;;;;;;;;4.20;99.90;;;;;;5052422;28;19915;-68
2021/03/19 07:18:16;;;;;;;;;;;4.30;99.90;;;;;;5052546;28;19905;-70
2021/03/19 07:21:11;;;;;;;;;;;4.30;99.90;;;;;;5034983;28;19905;-68
2021/03/19 07:23:57;;;;;;;;;;;4.20;99.90;;;;;;5055666;28;19916;-68
2021/03/19 07:26:23;;;;;;;;;;;3.60;99.90;;;;;;5060409;28;19913;-68
2021/03/19 07:28:49;;;;;;;;;;;4.20;99.90;;;;;;5056424;28;19912;-69
2021/03/19 07:31:27;;;;;;;;;;;4.30;99.90;;;;;;5056354;28;19983;-69
2021/03/19 07:34:08;;;;;;;;;;;4.40;99.90;;;;;;5055981;28;19905;-69
2021/03/19 07:36:52;;;;;;;;;;;5.20;99.90;;;;;;5063095;28;19912;-69
2021/03/19 07:39:31;;;;;;;;;;;4.50;99.90;;;;;;5064655;28;19979;-69
2021/03/19 07:41:59;;;;;;;;;;;;;;;;;;5056670;28;20337;-69
2021/03/19 07:44:24;;;;;;;;;;;4.70;99.90;;;;;;5055916;28;20018;-68
2021/03/19 07:47:04;;;;;;;;;;;4.60;99.90;;;;;;5055247;28;19950;-68
2021/03/19 07:49:43;;;;;;;;;;;4.60;99.90;;;;;;5056060;28;19905;-70
2021/03/19 07:52:30;;;;;;;;;;;4.60;99.90;;;;;;5056071;28;19908;-70
2021/03/19 07:55:02;;;;;;;;;;;5.90;99.90;;;;;;5058504;28;19915;-69
2021/03/19 07:57:28;;;;;;;;;;;4.80;99.90;;;;;;5064482;28;20222;-68
2021/03/19 07:59:57;;;;;;;;;;;4.80;99.90;;;;;;5056560;28;20047;-69
2021/03/19 08:02:26;;;;;;;;;;;5.00;99.90;;;;;;5062404;28;20250;-69
2021/03/19 08:05:03;;;;;;;;;;;4.90;99.90;;;;;;5066296;28;19963;-68
2021/03/19 08:07:47;;;;;;;;;;;4.90;99.90;;;;;;5065050;28;19905;-70
2021/03/19 08:10:24;;;;;;;;;;;4.80;99.90;;;;;;5059359;28;19912;-70
2021/03/19 08:12:59;;;;;;;;;;;4.70;99.90;;;;;;5067933;28;19905;-69
2021/03/19 08:15:34;;;;;;;;;;;4.80;99.90;;;;;;5068968;28;19908;-69
2021/03/19 08:18:26;;;;;;;;;;;5.00;99.90;;;;;;5057154;28;19905;-68
2021/03/19 08:20:54;;;;;;;;;;;5.30;99.90;;;;;;5056726;28;19948;-71
2021/03/19 08:23:23;;;;;;;;;;;5.60;99.90;;;;;;5054910;28;19909;-69
2021/03/19 08:25:49;;;;;;;;;;;6.40;99.90;;;;;;5056942;28;19909;-70
2021/03/19 08:28:33;;;;;;;;;;;6.10;99.90;;;;;;5053855;28;19956;-69
2021/03/19 08:31:05;;;;;;;;;;;5.20;99.90;;;;;;5056245;28;20003;-71
2021/03/19 08:33:36;;;;;;;;;;;6.30;99.90;;;;;;5062019;28;19912;-69
2021/03/19 08:36:07;;;;;;;;;;;6.90;99.90;;;;;;5055801;28;19991;-68
2021/03/19 08:38:40;;;;;;;;;;;5.90;99.90;;;;;;5052638;28;19939;-69
2021/03/19 08:41:06;;;;;;;;;;;;;;;;;;5054119;28;19904;-69
2021/03/19 08:43:34;;;;;;;;;;;5.30;99.90;;;;;;5054124;28;20346;-69
2021/03/19 08:46:03;;;;;;;;;;;3.00;99.90;;;;;;5054119;28;19908;-70
2021/03/19 08:48:29;;;;;;;;;;;5.00;99.90;;;;;;5052840;28;19915;-68
2021/03/19 08:51:10;;;;;;;;;;;4.80;99.90;;;;;;5053369;28;19908;-69
2021/03/19 08:53:56;;;;;;;;;;;4.50;99.90;;;;;;5055348;28;19911;-69
2021/03/19 08:56:24;;;;;;;;;;;5.20;99.90;;;;;;5054317;28;19962;-69
2021/03/19 08:58:51;;;;;;;;;;;4.40;99.90;;;;;;5054319;28;19913;-70
2021/03/19 09:01:35;;;;;;;;;;;4.50;99.90;;;;;;5044045;28;19962;-71
2021/03/19 09:04:01;;;;;;;;;;;4.70;99.90;;;;;;5054172;28;19958;-68
2021/03/19 09:06:28;;;;;;;;;;;4.80;99.90;;;;;;5054456;28;19909;-69
2021/03/19 09:09:06;;;;;;;;;;;5.10;99.90;;;;;;5054182;28;19909;-69
2021/03/19 09:11:38;;;;;;;;;;;4.80;99.90;;;;;;5074526;28;19904;-68
2021/03/19 09:14:04;;;;;;;;;;;4.80;99.90;;;;;;5074472;28;19915;-69
2021/03/19 09:16:48;;;;;;;;;;;4.90;99.90;;;;;;5073714;28;20338;-69
2021/03/19 09:19:32;;;;;;;;;;;5.20;99.90;;;;;;5073754;28;19922;-68
2021/03/19 09:22:16;;;;;;;;;;;5.60;99.90;;;;;;5052917;28;19999;-69
2021/03/19 09:24:42;;;;;;;;;;;5.80;99.90;;;;;;5071027;28;19955;-70
2021/03/19 09:27:22;;;;;;;;;;;6.00;99.90;;;;;;5073800;28;19943;-68
2021/03/19 09:29:48;;;;;;;;;;;6.00;99.90;;;;;;5074274;28;19950;-72
2021/03/19 09:32:26;;;;;;;;;;;6.40;99.90;;;;;;5053304;28;19932;-67
2021/03/19 09:34:51;;;;;;;;;;;6.40;99.90;;;;;;5053720;28;19912;-68
2021/03/19 09:37:32;;;;;;;;;;;6.30;99.90;;;;;;5053748;28;19916;-68
2021/03/19 09:40:00;;;;;;;;;;;6.40;99.90;;;;;;5053116;28;19919;-68
2021/03/19 09:42:27;;;;;;;;;;;6.40;99.90;;;;;;5053567;28;19915;-70
2021/03/19 09:44:52;;;;;;;;;;;;;;;;;;5052919;28;19962;-68
2021/03/19 09:47:18;;;;;;;;;;;;;;;;;;5053205;28;19904;-69
2021/03/19 09:49:44;;;;;;;;;;;6.70;99.90;;;;;;5053056;28;19959;-70
2021/03/19 09:52:17;;;;;;;;;;;6.80;99.90;;;;;;5052816;28;19909;-69
2021/03/19 09:54:44;;;;;;;;;;;7.00;99.90;;;;;;5062234;28;20389;-69
2021/03/19 09:57:22;;;;;;;;;;;7.10;99.90;;;;;;5053609;28;20350;-69
2021/03/19 09:59:54;;;;;;;;;;;7.10;99.90;;;;;;5052658;28;19916;-70
2021/03/19 10:02:31;;;;;;;;;;;7.10;99.90;;;;;;5052757;28;19970;-68
2021/03/19 10:05:26;;;;;;;;;;;7.20;99.90;;;;;;5038557;28;19908;-69
2021/03/19 10:07:53;;;;;;;;;;;7.00;99.90;;;;;;4991864;28;19905;-69
2021/03/19 10:10:22;;;;;;;;;;;7.30;99.90;;;;;;4991858;28;19905;-68
2021/03/19 10:12:47;;;;;;;;;;;7.60;99.90;;;;;;4991498;28;19945;-68
2021/03/19 10:15:16;;;;;;;;;;;7.40;99.90;;;;;;4992033;28;19945;-69
2021/03/19 10:17:48;;;;;;;;;;;7.10;99.90;;;;;;4991739;28;20004;-68
2021/03/19 10:20:28;;;;;;;;;;;7.50;99.90;;;;;;4990138;28;19964;-68
2021/03/19 10:23:18;;;;;;;;;;;7.40;99.90;;;;;;4990844;28;20028;-69
2021/03/19 10:25:44;;;;;;;;;;;7.30;99.90;;;;;;4971615;28;19977;-68
2021/03/19 10:28:13;;;;;;;;;;;7.50;99.90;;;;;;4971626;28;20324;-67
2021/03/19 10:30:43;;;;;;;;;;;7.50;99.90;;;;;;4971498;28;19910;-67
2021/03/19 10:33:20;;;;;;;;;;;7.30;99.90;;;;;;4972194;28;20295;-68
2021/03/19 10:35:49;;;;;;;;;;;7.60;99.90;;;;;;4972161;28;19917;-69
2021/03/19 10:38:14;;;;;;;;;;;6.90;99.90;;;;;;4966392;28;19918;-67
2021/03/19 10:40:43;;;;;;;;;;;8.00;99.90;;;;;;4973834;28;19945;-68
2021/03/19 10:43:25;;;;;;;;;;;8.40;99.90;;;;;;4973533;28;19914;-71
2021/03/19 10:45:55;;;;;;;;;;;7.70;99.90;;;;;;5020848;28;19905;-70
2021/03/19 10:48:33;;;;;;;;;;;7.60;99.90;;;;;;5016118;28;19996;-69
2021/03/19 10:51:05;;;;;;;;;;;7.60;99.90;;;;;;5010475;28;19909;-69
2021/03/19 10:53:51;;;;;;;;;;;7.10;99.90;;;;;;5010465;28;19917;-68
2021/03/19 10:56:17;;;;;;;;;;;7.00;99.90;;;;;;4990209;28;20316;-70
2021/03/19 10:58:53;;;;;;;;;;;7.10;99.90;;;;;;5007937;28;19920;-68
2021/03/19 11:01:25;;;;;;;;;;;7.00;99.90;;;;;;5010705;28;19935;-68
2021/03/19 11:03:50;;;;;;;;;;;7.10;99.90;;;;;;5056203;28;19905;-68
2021/03/19 11:06:32;;;;;;;;;;;7.40;99.90;;;;;;5058288;28;19915;-68
2021/03/19 11:09:28;;;;;;;;;;;7.40;99.90;;;;;;5066704;28;19991;-67
2021/03/19 11:11:55;;;;;;;;;;;7.50;99.90;;;;;;5004526;28;19909;-69
2021/03/19 11:14:25;;;;;;;;;;;7.70;99.90;;;;;;5014207;28;19912;-71
2021/03/19 11:16:51;;;;;;;;;;;7.70;99.90;;;;;;5004997;28;19917;-72
2021/03/19 11:19:20;;;;;;;;;;;7.80;99.90;;;;;;4994598;28;19941;-75
2021/03/19 11:21:52;;;;;;;;;;;7.70;99.90;;;;;;4989280;28;19910;-69
2021/03/19 11:24:20;;;;;;;;;;;7.60;99.90;;;;;;4980631;28;20391;-68
2021/03/19 11:26:59;;;;;;;;;;;7.40;99.90;;;;;;4994673;28;19913;-68
2021/03/19 11:29:32;;;;;;;;;;;7.30;99.90;;;;;;4997031;28;19905;-70
2021/03/19 11:32:10;;;;;;;;;;;7.40;99.90;;;;;;4984142;28;19995;-68
2021/03/19 11:34:46;;;;;;;;;;;7.30;99.90;;;;;;4992082;28;20009;-69
2021/03/19 11:37:29;;;;;;;;;;;7.40;99.90;;;;;;5001832;28;20391;-68
2021/03/19 11:39:58;;;;;;;;;;;7.60;99.90;;;;;;4997722;28;19936;-69
2021/03/19 11:42:28;;;;;;;;;;;7.60;99.90;;;;;;4993729;28;19914;-68
2021/03/19 11:44:59;;;;;;;;;;;8.00;99.90;;;;;;4996158;28;19924;-69
2021/03/19 11:47:26;;;;;;;;;;;8.10;99.90;;;;;;5009761;28;19978;-70
2021/03/19 11:49:56;;;;;;;;;;;8.30;99.90;;;;;;5050638;28;19908;-69
2021/03/19 11:52:22;;;;;;;;;;;8.40;99.90;;;;;;5039964;28;19956;-71
2021/03/19 11:54:47;;;;;;;;;;;8.70;99.90;;;;;;5037285;28;19948;-69
2021/03/19 11:57:14;;;;;;;;;;;8.70;99.90;;;;;;5039043;28;19971;-69
2021/03/19 11:59:39;;;;;;;;;;;8.30;99.90;;;;;;5041068;28;20003;-69
2021/03/19 12:02:13;;;;;;;;;;;8.20;99.90;;;;;;5045974;28;20000;-69
2021/03/19 12:04:39;;;;;;;;;;;7.90;99.90;;;;;;5020315;28;19936;-68
2021/03/19 12:07:05;;;;;;;;;;;7.90;99.90;;;;;;5037320;28;19912;-67
2021/03/19 12:09:30;;;;;;;;;;;8.00;99.90;;;;;;5042130;28;19916;-67
2021/03/19 12:11:56;;;;;;;;;;;8.10;99.90;;;;;;5046136;28;19913;-69
2021/03/19 12:14:24;;;;;;;;;;;8.20;99.90;;;;;;5055979;28;20004;-69
2021/03/19 12:16:50;;;;;;;;;;;8.20;99.90;;;;;;5044956;28;19924;-70
2021/03/19 12:19:15;;;;;;;;;;;8.20;99.90;;;;;;5039063;28;20282;-69
2021/03/19 12:21:42;;;;;;;;;;;7.90;99.90;;;;;;5028736;28;19998;-70
2021/03/19 12:24:08;;;;;;;;;;;7.90;99.90;;;;;;5046351;28;19912;-70
2021/03/19 12:26:33;;;;;;;;;;;7.80;99.90;;;;;;5036966;28;19913;-70
2021/03/19 12:28:59;;;;;;;;;;;7.90;99.90;;;;;;5040064;28;19959;-69
2021/03/19 12:31:25;;;;;;;;;;;7.90;99.90;;;;;;5039377;28;19955;-67
2021/03/19 12:33:50;;;;;;;;;;;7.90;99.90;;;;;;5038831;28;19917;-69
2021/03/19 12:36:16;;;;;;;;;;;7.70;99.90;;;;;;5038359;28;19905;-69
2021/03/19 12:38:42;;;;;;;;;;;7.50;99.90;;;;;;5025833;28;19917;-69
2021/03/19 12:41:07;;;;;;;;;;;7.60;99.90;;;;;;5037758;28;20044;-69
2021/03/19 12:43:33;;;;;;;;;;;7.70;99.90;;;;;;5039418;28;19909;-69
2021/03/19 12:45:58;;;;;;;;;;;7.60;99.90;;;;;;5038033;28;20255;-69
2021/03/19 12:48:25;;;;;;;;;;;7.50;99.90;;;;;;5037871;28;19960;-68
2021/03/19 12:50:51;;;;;;;;;;;7.60;99.90;;;;;;5041038;28;20036;-70
2021/03/19 12:53:18;;;;;;;;;;;7.60;99.90;;;;;;5039538;28;20390;-69
2021/03/19 12:55:44;;;;;;;;;;;7.60;99.90;;;;;;5040955;28;19914;-71
2021/03/19 12:58:11;;;;;;;;;;;7.60;99.90;;;;;;5038093;28;19912;-69
2021/03/19 13:00:37;;;;;;;;;;;7.60;99.90;;;;;;5041468;28;20011;-69
2021/03/19 13:03:04;;;;;;;;;;;7.40;99.90;;;;;;5047017;28;20437;-69
2021/03/19 13:05:35;;;;;;;;;;;7.40;99.90;;;;;;5049716;28;20381;-71
2021/03/19 13:08:01;;;;;;;;;;;7.30;99.90;;;;;;5026819;28;19912;-67
2021/03/19 13:10:28;;;;;;;;;;;7.30;99.90;;;;;;5046326;28;19913;-69
2021/03/19 13:12:54;;;;;;;;;;;6.90;99.90;;;;;;5047154;28;20255;-67
2021/03/19 13:15:21;;;;;;;;;;;6.70;99.90;;;;;;5039795;28;19920;-71
2021/03/19 13:17:47;;;;;;;;;;;6.40;99.90;;;;;;5027651;28;20349;-68
2021/03/19 13:20:14;;;;;;;;;;;6.40;99.90;;;;;;5050883;28;19912;-69
2021/03/19 13:22:40;;;;;;;;;;;6.30;99.90;;;;;;5035305;28;19958;-68
2021/03/19 13:25:07;;;;;;;;;;;6.60;99.90;;;;;;5046371;28;19905;-69
2021/03/19 13:27:33;;;;;;;;;;;7.00;99.90;;;;;;5047334;28;19957;-69
2021/03/19 13:29:59;;;;;;;;;;;7.40;99.90;;;;;;5038082;28;19988;-69
2021/03/19 13:32:24;;;;;;;;;;;7.70;99.90;;;;;;5036962;28;19920;-68
2021/03/19 13:34:50;;;;;;;;;;;7.80;99.90;;;;;;5051194;28;19909;-67
2021/03/19 13:37:16;;;;;;;;;;;7.90;99.90;;;;;;5036042;28;19913;-69
2021/03/19 13:39:41;;;;;;;;;;;8.20;99.90;;;;;;5042489;28;19916;-70
2021/03/19 13:42:07;;;;;;;;;;;8.30;99.90;;;;;;5039784;28;19904;-71
2021/03/19 13:44:34;;;;;;;;;;;8.50;99.90;;;;;;5046388;28;19909;-70
2021/03/19 13:47:01;;;;;;;;;;;8.60;99.90;;;;;;5043711;28;19905;-70
2021/03/19 13:49:27;;;;;;;;;;;8.70;99.90;;;;;;5052086;28;19950;-68
2021/03/19 13:51:54;;;;;;;;;;;8.60;99.90;;;;;;5042339;28;19909;-70
2021/03/19 13:54:19;;;;;;;;;;;9.20;99.90;;;;;;5017201;28;19909;-71
2021/03/19 13:56:47;;;;;;;;;;;9.10;99.90;;;;;;5047128;28;19912;-69
2021/03/19 13:59:13;;;;;;;;;;;9.30;99.90;;;;;;5051221;28;19920;-69
2021/03/19 14:01:38;;;;;;;;;;;9.40;99.90;;;;;;5043200;28;19909;-69
2021/03/19 14:04:10;;;;;;;;;;;9.60;98.70;;;;;;5048219;28;19995;-70
2021/03/19 14:06:39;;;;;;;;;;;9.20;99.90;;;;;;5042810;28;19905;-68
2021/03/19 14:09:06;;;;;;;;;;;9.50;99.90;;;;;;5018034;28;19931;-70
2021/03/19 14:11:32;;;;;;;;;;;10.30;99.90;;;;;;5037953;28;19999;-70
2021/03/19 14:14:00;;;;;;;;;;;;;;;;;;5035650;28;19904;-70
2021/03/19 14:16:26;;;;;;;;;;;;;;;;;;5044272;28;19935;-68
2021/03/19 14:18:52;;;;;;;;;;;;;;;;;;5021247;28;20364;-68
2021/03/19 14:21:18;;;;;;;;;;;10.80;99.90;;;;;;5038759;28;19963;-70
2021/03/19 14:23:45;;;;;;;;;;;10.90;99.90;;;;;;5042778;28;19935;-70
2021/03/19 14:26:11;;;;;;;;;;;10.50;99.90;;;;;;5046960;28;19905;-69
2021/03/19 14:28:38;;;;;;;;;;;11.60;98.10;;;;;;5037837;28;19916;-69
2021/03/19 14:31:05;;;;;;;;;;;11.80;95.50;;;;;;5037642;28;19917;-68
2021/03/19 14:33:31;;;;;;;;;;;12.70;96.60;;;;;;5035811;28;20003;-69
2021/03/19 14:35:56;;;;;;;;;;;12.60;86.80;;;;;;5058701;28;19912;-70
2021/03/19 14:38:22;;;;;;;;;;;13.40;98.60;;;;;;5059140;28;19905;-70
2021/03/19 14:40:49;;;;;;;;;;;12.10;98.30;;;;;;5061771;28;19909;-69
2021/03/19 14:43:15;;;;;;;;;;;11.10;99.90;;;;;;5050674;28;20390;-69
2021/03/19 14:45:40;;;;;;;;;;;9.90;99.90;;;;;;5062184;28;19912;-70
2021/03/19 14:48:07;;;;;;;;;;;9.30;99.90;;;;;;5055243;28;19911;-70
2021/03/19 14:50:34;;;;;;;;;;;8.90;99.90;;;;;;5049793;28;19912;-70
2021/03/19 14:53:00;;;;;;;;;;;8.40;99.90;;;;;;5044601;28;19913;-70
2021/03/19 14:55:27;;;;;;;;;;;8.10;99.90;;;;;;5058979;28;19908;-69
2021/03/19 14:57:53;;;;;;;;;;;8.70;99.90;;;;;;5052101;28;19924;-70
2021/03/19 15:00:35;;;;;;;;;;;9.00;99.90;;;;;;5054908;28;19975;-69